Flight Track Log - Related Links

Times and Time Zones

All times are in EDT time to prevent confusion due to time zone crossing. See the UAL5862 flight status page for this flight to view local times or setup timezone preferences in your user account.

Time Position Orientation Groundspeed Altitude Reporting Facility
EDT Latitude Longitude Course Direction KTS MPH feet Rate Location/Type
Wed 06:04:29 AM 35.8164 -84.0747 27° Northeast 160 184 4,900  Level Atlanta Center
Wed 06:05:29 AM 35.8622 -84.0106 49° Northeast 117 135 7,700 2,500 Climbing Atlanta Center
Wed 06:06:29 AM 35.8975 -83.9158 65° Northeast 176 203 9,900 1,550 Climbing Atlanta Center
Wed 06:07:00 AM 36.2945 -83.6262 27° Northeast  Level FlightAware Approximate
Wed 06:07:29 AM 35.9747 -83.8514 34° Northeast 272 313 10,800  Level Atlanta Center
Wed 06:08:00 AM 36.3970 -83.5604 27° Northeast  Level FlightAware Approximate
Wed 06:08:29 AM 36.0706 -83.7947 26° Northeast 343 395 12,500  Level Atlanta Center
Wed 06:09:00 AM 36.4995 -83.4944 27° Northeast  Level FlightAware Approximate
Wed 06:09:29 AM 36.1664 -83.7328 28° Northeast 360 414 14,200  Level Atlanta Center
Wed 06:10:29 AM 36.2725 -83.6628 28° Northeast 385 443 16,000 1,600 Climbing Atlanta Center
Wed 06:11:44 AM 36.3822 -83.5911 28° Northeast 396 456 17,800 1,378 Climbing Indianapolis Center
Wed 06:12:44 AM 36.4817 -83.5283 27° Northeast 401 461 19,100 1,339 Climbing Indianapolis Center
Wed 06:13:45 AM 36.5906 -83.4589 27° Northeast 408 470 20,500 1,339 Climbing Indianapolis Center
Wed 06:14:45 AM 36.6942 -83.3925 27° Northeast 414 476 21,800 1,388 Climbing Indianapolis Center
Wed 06:15:46 AM 36.7989 -83.3250 27° Northeast 418 481 23,300 1,537 Climbing Indianapolis Center
Wed 06:16:46 AM 36.9047 -83.2572 27° Northeast 422 486 24,900 1,537 Climbing Indianapolis Center
Wed 06:17:47 AM 37.0081 -83.1906 27° Northeast 416 479 26,400 1,475 Climbing Indianapolis Center
Wed 06:18:48 AM 37.1125 -83.1242 27° Northeast 414 476 27,900 1,388 Climbing Indianapolis Center
Wed 06:19:48 AM 37.2144 -83.0567 28° Northeast 412 474 29,200 1,488 Climbing Indianapolis Center
Wed 06:20:49 AM 37.2800 -82.9353 56° Northeast 425 489 30,900 893 Climbing Indianapolis Center
Wed 06:21:49 AM 37.3242 -82.7867 69° East 449 517 31,000 50 Climbing Indianapolis Center
Wed 06:22:50 AM 37.3697 -82.6264 70° East 478 550 31,000  Level Indianapolis Center
Wed 06:23:51 AM 37.4153 -82.4617 71° East 492 566 31,000  Level Indianapolis Center
Wed 06:24:51 AM 37.4619 -82.2961 70° East 499 574 31,000  Level Indianapolis Center
Wed 06:25:52 AM 37.5089 -82.1311 70° East 499 574 31,000  Level Indianapolis Center
Wed 06:26:52 AM 37.5542 -81.9642 71° East 501 577 31,000  Level Indianapolis Center
Wed 06:27:53 AM 37.6008 -81.7967 71° East 505 581 31,000  Level Indianapolis Center
Wed 06:28:54 AM 37.6456 -81.6289 71° East 505 581 31,000  Level Indianapolis Center
Wed 06:29:54 AM 37.6872 -81.4733 71° East 502 578 31,000  Level Indianapolis Center
Wed 06:30:43 AM 37.7303 -81.3108 71° East 503 579 31,000  Level Washington Center
Wed 06:31:43 AM 37.7733 -81.1486 71° East 503 579 31,000  Level Washington Center
Wed 06:32:43 AM 37.8286 -80.9897 66° East 496 571 31,000  Level Washington Center
Wed 06:33:43 AM 37.8789 -80.8458 66° East 496 571 31,000  Level Washington Center
Wed 06:34:43 AM 37.9397 -80.6894 64° Northeast 496 571 31,000 -750 Level Washington Center
Wed 06:35:43 AM 38.0064 -80.5439 60° Northeast 485 558 29,500 -1,000 Descending Washington Center
Wed 06:36:43 AM 38.0772 -80.3928 59° Northeast 479 551 29,000 -250 Descending Washington Center
Wed 06:37:43 AM 38.1433 -80.2492 60° Northeast 474 545 29,000  Level Washington Center
Wed 06:38:43 AM 38.2206 -80.0875 59° Northeast 479 551 29,000  Level Washington Center
Wed 06:39:43 AM 38.2886 -79.9381 60° Northeast 479 551 29,000 -350 Level Washington Center
Wed 06:40:43 AM 38.3583 -79.7914 59° Northeast 479 551 28,300 -1,300 Descending Washington Center
Wed 06:41:43 AM 38.4261 -79.6442 60° Northeast 473 544 26,400 -1,950 Descending Washington Center
Wed 06:42:43 AM 38.4914 -79.4964 61° Northeast 473 544 24,400 -1,200 Descending Washington Center
Wed 06:43:43 AM 38.5375 -79.3581 67° East 473 544 24,000 -200 Descending Washington Center
Wed 06:44:43 AM 38.5678 -79.1872 77° East 473 544 24,000 -700 Level Washington Center
Wed 06:45:43 AM 38.5933 -79.0264 78° East 473 544 22,600 -2,000 Descending Washington Center
Wed 06:46:43 AM 38.6183 -78.8758 78° East 451 519 20,000 -2,800 Descending Washington Center
Wed 06:47:43 AM 38.6469 -78.7417 75° East 416 479 17,000 -3,100 Descending Washington Center
Wed 06:48:43 AM 38.6775 -78.6100 73° East 397 457 13,800 -2,700 Descending Washington Center
Wed 06:49:43 AM 38.7078 -78.4836 73° East 379 436 11,600 -1,550 Descending Washington Center
Wed 06:50:43 AM 38.7375 -78.3728 71° East 350 403 10,700 -1,500 Descending Washington Center
Wed 06:51:43 AM 38.8058 -78.3036 38° Northeast 304 350 8,600 -2,000 Descending Washington Center
Wed 06:52:43 AM 38.8794 -78.2636 23° Northeast 281 323 6,700 -1,300 Descending Washington Center
Wed 06:53:43 AM 38.9494 -78.2153 28° Northeast 281 323 6,000 -350 Descending Washington Center
Wed 06:54:43 AM 38.9661 -78.1225 77° East 254 292 6,000  Level Washington Center
Wed 06:55:43 AM 38.9658 -78.0264 90° East 244 281 6,000  Level Washington Center
Wed 06:56:43 AM 38.9906 -77.9364 71° East 250 288 6,000  Level Washington Center
Wed 06:57:43 AM 39.0356 -77.8764 46° Northeast 242 278 6,000  Level Washington Center
Wed 06:59:27 AM 38.9667 -77.7333 122° Southeast 269 310 6,000  Level Potomac TRACON
Wed 07:00:27 AM 38.9667 -77.6500 90° East 257 296 6,000  Level Potomac TRACON
Wed 07:01:21 AM 39.0000 -77.5833 57° Northeast 251 289 6,000  Level Potomac TRACON
Wed 07:02:15 AM 39.0500 -77.5667 15° North 229 264 6,000  Level Potomac TRACON
Wed 07:03:15 AM 39.1167 -77.5667 360° North 202 232 6,000 -149 Level Potomac TRACON
Wed 07:04:16 AM 39.1667 -77.5667 360° North 208 239 5,700 -496 Descending Potomac TRACON
Wed 07:05:16 AM 39.2333 -77.5833 349° North 202 232 5,000 -350 Descending Potomac TRACON
Wed 07:06:16 AM 39.2667 -77.5333 49° Northeast 240 276 5,000  Level Potomac TRACON
Wed 07:07:11 AM 39.2667 -77.4667 90° East 241 277 5,000 -52 Level Potomac TRACON
Wed 07:08:11 AM 39.2000 -77.4500 169° South 207 238 4,900 -550 Descending Potomac TRACON
Wed 07:09:11 AM 39.1500 -77.4500 180° South 194 223 3,900 -950 Descending Potomac TRACON
Wed 07:10:11 AM 39.1000 -77.4500 180° South 164 189 3,000 -900 Descending Potomac TRACON

Login

Don't have an account? Register now (free) for customized features, flight alerts, and more!